Time;durP1;ratioP1;P1;durP2;ratioP2;P2;SDS_P1;SDS_P2;PMS_P1;PMS_P2;Temp;Humidity;BMP_temperature;BMP_pressure;BME280_temperature;BME280_humidity;BME280_pressure;Samples;Min_cycle;Max_cycle;Signal;HPM_P1;HPM_P2
2022/01/13 00:00:18;;;;;;;24.47;17.33;;;;;;;2.34;93.69;102895.53;5046119;28;20208;-76
2022/01/13 00:02:44;;;;;;;30.30;18.57;;;;;;;2.41;93.92;102894.16;5045223;28;20220;-76
2022/01/13 00:05:11;;;;;;;29.00;17.77;;;;;;;2.56;93.57;102888.97;5042694;28;20222;-76
2022/01/13 00:07:37;;;;;;;26.13;17.57;;;;;;;2.68;93.33;102901.63;5045720;28;20201;-76
2022/01/13 00:10:05;;;;;;;30.07;19.60;;;;;;;2.58;93.37;102906.28;5044888;28;20276;-76
2022/01/13 00:12:36;;;;;;;24.47;18.40;;;;;;;2.55;93.29;102915.53;5062493;22;20237;-77
2022/01/13 00:17:58;;;;;;;27.93;18.73;;;;;;;2.48;93.14;102919.47;5063904;28;20205;-77
2022/01/13 00:20:35;;;;;;;35.17;19.80;;;;;;;2.37;93.14;102910.25;5073079;28;20197;-77
2022/01/13 00:25:56;;;;;;;30.30;18.13;;;;;;;2.53;92.56;102915.44;5029443;28;20306;-79
2022/01/13 00:28:23;;;;;;;31.63;18.63;;;;;;;2.45;93.14;102921.00;5067529;28;20196;-76
2022/01/13 00:30:53;;;;;;;33.20;19.90;;;;;;;2.58;93.12;102923.44;5073033;28;20204;-76
2022/01/13 00:33:24;;;;;;;27.37;17.90;;;;;;;2.43;93.22;102927.75;5073163;28;20231;-76
2022/01/13 00:35:52;;;;;;;28.63;18.73;;;;;;;2.43;93.20;102915.75;5074629;28;20308;-76
2022/01/13 00:38:18;;;;;;;33.77;19.13;;;;;;;2.48;93.32;102914.31;5073545;28;20208;-76
2022/01/13 00:40:45;;;;;;;31.90;19.23;;;;;;;2.42;92.76;102923.41;5074032;28;20204;-76
2022/01/13 00:43:11;;;;;;;38.63;19.87;;;;;;;2.41;93.24;102917.34;5073855;28;20246;-76
2022/01/13 00:45:38;;;;;;;36.20;21.17;;;;;;;2.36;93.26;102914.53;5065792;28;20233;-76
2022/01/13 00:48:05;;;;;;;36.97;20.60;;;;;;;2.23;93.25;102908.63;5074004;28;20209;-76
2022/01/13 00:50:32;;;;;;;34.87;20.87;;;;;;;2.21;94.12;102898.22;5073504;28;20250;-76
2022/01/13 00:52:59;;;;;;;33.07;20.77;;;;;;;2.30;93.94;102892.69;5074343;28;20721;-79
2022/01/13 00:55:32;;;;;;;41.13;20.53;;;;;;;2.43;93.55;102894.25;5074554;28;20623;-77
2022/01/13 00:57:59;;;;;;;42.27;21.87;;;;;;;2.38;93.83;102894.88;5074195;28;20212;-79
2022/01/13 01:00:26;;;;;;;39.60;20.90;;;;;;;2.39;93.33;102899.22;5073454;28;20714;-77
2022/01/13 01:02:52;;;;;;;39.53;22.03;;;;;;;2.26;93.85;102899.38;5073705;28;20277;-76
2022/01/13 01:05:18;;;;;;;52.67;23.07;;;;;;;2.36;93.40;102887.91;5073584;28;20278;-76
2022/01/13 01:07:46;;;;;;;44.13;22.73;;;;;;;2.27;93.84;102889.97;5073888;28;20205;-76
2022/01/13 01:10:12;;;;;;;42.53;21.10;;;;;;;2.31;94.05;102886.75;5073351;28;20262;-77
2022/01/13 01:12:39;;;;;;;46.90;22.30;;;;;;;2.30;93.96;102891.00;5073304;28;20286;-76
2022/01/13 01:15:07;;;;;;;44.90;23.53;;;;;;;2.15;94.04;102887.59;5065320;28;20686;-76
2022/01/13 01:17:41;;;;;;;48.63;24.10;;;;;;;2.16;93.62;102874.81;5073649;28;20209;-76
2022/01/13 01:20:08;;;;;;;44.43;22.80;;;;;;;2.10;94.76;102869.31;5073421;28;20201;-76
2022/01/13 01:22:44;;;;;;;47.70;23.70;;;;;;;2.14;94.17;102866.09;5073538;28;20237;-76
2022/01/13 01:25:34;;;;;;;49.97;24.07;;;;;;;2.11;94.72;102876.22;5073671;28;20204;-77
2022/01/13 01:28:01;;;;;;;45.47;24.13;;;;;;;2.10;94.45;102879.63;5073425;28;20299;-77
2022/01/13 01:30:33;;;;;;;38.57;21.57;;;;;;;2.09;94.11;102882.09;5073363;28;20200;-76
2022/01/13 01:32:59;;;;;;;54.87;24.93;;;;;;;2.14;93.82;102875.50;5073170;28;20319;-76
2022/01/13 01:35:27;;;;;;;55.27;24.63;;;;;;;1.96;94.31;102877.94;5073289;28;20208;-76
2022/01/13 01:37:54;;;;;;;59.60;28.40;;;;;;;1.99;94.00;102873.84;5073469;28;20215;-78
2022/01/13 01:40:23;;;;;;;56.30;25.13;;;;;;;2.07;94.42;102879.44;5072483;28;20216;-78
2022/01/13 01:42:50;;;;;;;61.23;26.77;;;;;;;2.03;94.21;102886.91;5072994;28;20294;-76
2022/01/13 01:45:18;;;;;;;57.00;26.57;;;;;;;1.92;94.53;102894.03;5064596;28;20587;-76
2022/01/13 01:47:45;;;;;;;56.77;25.83;;;;;;;1.95;94.67;102895.09;5072846;28;20285;-76
2022/01/13 01:50:18;;;;;;;61.50;27.47;;;;;;;1.91;94.70;102898.31;5072696;28;20299;-76
2022/01/13 01:52:45;;;;;;;55.83;24.13;;;;;;;1.95;94.52;102895.09;5072898;28;20231;-76
2022/01/13 01:55:12;;;;;;;50.80;24.80;;;;;;;1.98;94.17;102903.00;5073157;28;20258;-77
2022/01/13 01:57:39;;;;;;;60.07;27.27;;;;;;;1.79;94.10;102889.88;5072521;28;20580;-76
2022/01/13 02:00:10;;;;;;;64.10;27.27;;;;;;;1.82;94.60;102887.47;5072270;28;20208;-76
2022/01/13 02:02:37;;;;;;;69.57;28.40;;;;;;;1.69;95.00;102867.00;5072536;28;20745;-76
2022/01/13 02:05:04;;;;;;;63.00;28.00;;;;;;;1.57;96.16;102850.06;5072495;28;20205;-77
2022/01/13 02:07:30;;;;;;;67.63;28.93;;;;;;;1.65;96.00;102835.03;5072493;28;20748;-76
2022/01/13 02:09:56;;;;;;;68.37;29.23;;;;;;;1.66;95.89;102835.91;5072108;28;20209;-76
2022/01/13 02:12:33;;;;;;;61.50;26.23;;;;;;;1.43;96.18;102822.66;5072094;28;20331;-76
2022/01/13 02:15:28;;;;;;;67.43;28.30;;;;;;;1.34;96.37;102807.56;5064031;28;20242;-78
2022/01/13 02:17:54;;;;;;;77.00;29.67;;;;;;;1.33;97.62;102795.50;5074698;28;20207;-78
2022/01/13 02:20:22;;;;;;;82.23;33.70;;;;;;;1.30;97.31;102785.03;5076851;28;20243;-78
2022/01/13 02:22:48;;;;;;;76.33;31.37;;;;;;;1.32;98.37;102779.97;5072521;28;20224;-78
2022/01/13 02:25:16;;;;;;;79.20;31.47;;;;;;;1.22;98.51;102767.41;5075951;28;20200;-78
2022/01/13 02:27:43;;;;;;;76.30;33.00;;;;;;;1.26;98.73;102759.06;5074940;28;20748;-78
2022/01/13 02:30:11;;;;;;;84.73;34.97;;;;;;;1.21;98.95;102761.38;5074084;28;20212;-78
2022/01/13 02:32:37;;;;;;;75.37;31.43;;;;;;;1.20;98.83;102749.28;5076572;28;20307;-78
2022/01/13 02:35:04;;;;;;;75.77;32.77;;;;;;;1.11;98.54;102756.47;5076568;28;20694;-78
2022/01/13 02:37:32;;;;;;;79.23;34.20;;;;;;;1.29;99.37;102741.19;5076689;28;20201;-78
2022/01/13 02:39:58;;;;;;;91.83;34.33;;;;;;;1.24;99.09;102738.38;5075529;28;20201;-78
2022/01/13 02:42:25;;;;;;;75.87;33.47;;;;;;;1.32;98.99;102731.09;5074880;28;20232;-78
2022/01/13 02:45:01;;;;;;;82.20;35.17;;;;;;;1.41;99.61;102726.47;5067285;28;20671;-78
2022/01/13 02:47:59;;;;;;;89.90;33.33;;;;;;;1.28;98.71;102724.00;5054184;28;20248;-78
2022/01/13 02:50:25;;;;;;;84.90;34.00;;;;;;;1.29;99.57;102713.81;5055744;28;20209;-79
2022/01/13 02:52:52;;;;;;;81.53;32.53;;;;;;;1.33;99.57;102702.88;5055989;28;20476;-78
2022/01/13 02:55:19;;;;;;;79.90;33.77;;;;;;;1.43;99.48;102704.28;5055330;28;20205;-78
2022/01/13 02:57:45;;;;;;;84.03;33.07;;;;;;;1.40;98.77;102704.09;5053552;28;20201;-78
2022/01/13 03:00:17;;;;;;;81.57;33.23;;;;;;;1.39;98.22;102710.94;5055254;28;20741;-79
2022/01/13 03:02:47;;;;;;;70.37;31.90;;;;;;;1.44;97.81;102708.59;5056108;28;20323;-79
2022/01/13 03:05:14;;;;;;;78.03;30.80;;;;;;;1.45;97.38;102720.69;5054711;28;20209;-78
2022/01/13 03:07:41;;;;;;;65.60;31.00;;;;;;;1.48;96.67;102730.25;5054884;28;20271;-78
2022/01/13 03:10:11;;;;;;;59.83;27.57;;;;;;;1.57;96.29;102746.22;5053082;28;20640;-78
2022/01/13 03:12:44;;;;;;;73.83;32.00;;;;;;;1.44;96.15;102747.22;5057305;28;20228;-78
2022/01/13 03:15:11;;;;;;;70.20;30.30;;;;;;;1.52;96.15;102755.34;5065029;28;20232;-78
2022/01/13 03:17:37;;;;;;;65.70;29.50;;;;;;;1.43;95.63;102760.88;5073257;28;20205;-76
2022/01/13 03:20:05;;;;;;;73.10;32.43;;;;;;;1.28;96.25;102744.59;5072901;28;20208;-78
2022/01/13 03:22:32;;;;;;;70.37;31.50;;;;;;;1.31;96.23;102737.94;5071906;28;20570;-78
2022/01/13 03:24:58;;;;;;;76.97;32.53;;;;;;;1.21;97.06;102730.50;5074844;28;20204;-78
2022/01/13 03:27:34;;;;;;;68.60;29.60;;;;;;;1.14;97.07;102724.09;5074945;28;20259;-79
2022/01/13 03:30:01;;;;;;;69.10;30.30;;;;;;;1.24;97.14;102722.06;5073097;28;20246;-78
2022/01/13 03:32:28;;;;;;;69.80;31.03;;;;;;;1.39;96.71;102720.34;5074726;28;20221;-78
2022/01/13 03:34:54;;;;;;;70.80;31.77;;;;;;;1.49;97.25;102711.47;5076726;28;20208;-78
2022/01/13 03:37:20;;;;;;;62.57;31.17;;;;;;;1.55;96.99;102722.09;5077850;28;20261;-78
2022/01/13 03:39:47;;;;;;;68.70;31.70;;;;;;;1.43;96.77;102732.59;5076565;28;20257;-78
2022/01/13 03:42:13;;;;;;;70.83;35.53;;;;;;;1.36;96.95;102726.19;5076581;28;20273;-78
2022/01/13 03:44:41;;;;;;;51.60;27.63;;;;;;;1.47;96.80;102719.09;5072690;28;20354;-78
2022/01/13 03:47:09;;;;;;;67.83;29.73;;;;;;;1.56;96.69;102726.41;5075231;28;20305;-78
2022/01/13 03:49:36;;;;;;;70.37;32.30;;;;;;;1.70;96.88;102733.19;5075387;28;20212;-78
2022/01/13 03:52:47;;;;;;;73.87;32.53;;;;;;;1.72;96.73;102730.72;5078214;28;20224;-78
2022/01/13 03:55:51;;;;;;;79.93;32.90;;;;;;;1.75;97.62;102708.59;5074511;28;20683;-78
2022/01/13 03:59:08;;;;;;;76.47;31.53;;;;;;;1.67;97.23;102707.31;5077943;28;20258;-78
2022/01/13 04:02:00;;;;;;;75.50;32.23;;;;;;;1.71;98.00;102680.03;5077365;28;20565;-78
2022/01/13 04:04:27;;;;;;;83.73;33.50;;;;;;;1.53;98.65;102675.66;5079101;28;20219;-78
2022/01/13 04:07:05;;;;;;;78.67;34.13;;;;;;;1.70;99.03;102655.97;5077161;28;20225;-78
2022/01/13 04:10:13;;;;;;;83.33;34.57;;;;;;;1.78;98.28;102654.69;5076707;28;20215;-78
2022/01/13 04:12:39;;;;;;;81.60;34.27;;;;;;;1.74;98.68;102650.16;5078956;28;20324;-78
2022/01/13 04:15:11;;;;;;;85.60;34.43;;;;;;;1.70;98.07;102644.78;5069973;28;20205;-78
2022/01/13 04:17:39;;;;;;;76.83;34.60;;;;;;;1.68;99.15;102646.38;5079295;28;20196;-78
2022/01/13 04:20:07;;;;;;;87.67;34.50;;;;;;;1.78;99.23;102651.22;5078339;28;20223;-78
2022/01/13 04:22:33;;;;;;;81.17;33.23;;;;;;;1.70;98.92;102647.34;5078807;28;20628;-78
2022/01/13 04:25:00;;;;;;;81.17;33.03;;;;;;;1.64;98.39;102647.03;5079121;28;20205;-78
2022/01/13 04:27:31;;;;;;;81.23;33.83;;;;;;;1.71;98.87;102637.16;5078640;28;20282;-78
2022/01/13 04:30:22;;;;;;;97.57;34.20;;;;;;;1.71;98.59;102637.16;5078230;28;20200;-78
2022/01/13 04:32:49;;;;;;;83.60;33.53;;;;;;;1.62;98.93;102633.19;5078836;28;20224;-78
2022/01/13 04:35:16;;;;;;;88.73;33.57;;;;;;;1.59;99.25;102623.63;5079018;28;20739;-78
2022/01/13 04:37:42;;;;;;;91.47;36.23;;;;;;;1.70;99.59;102621.63;5079538;28;20250;-78
2022/01/13 04:40:09;;;;;;;99.10;35.43;;;;;;;1.77;99.34;102605.69;5077906;28;20686;-78
2022/01/13 04:42:37;;;;;;;90.07;33.53;;;;;;;1.75;98.88;102613.31;5078372;28;20249;-78
2022/01/13 04:45:04;;;;;;;80.97;33.33;;;;;;;1.80;98.72;102613.56;5069839;28;20228;-78
2022/01/13 04:47:30;;;;;;;83.40;33.40;;;;;;;1.84;98.92;102620.63;5078578;28;20319;-78
2022/01/13 04:49:58;;;;;;;87.10;33.07;;;;;;;1.86;99.71;102624.19;5078015;28;20220;-78
2022/01/13 04:52:24;;;;;;;92.13;35.37;;;;;;;1.70;99.48;102613.88;5078318;28;20225;-76
2022/01/13 04:54:51;;;;;;;97.87;35.17;;;;;;;1.74;99.80;102602.94;5077014;28;20205;-78
2022/01/13 04:57:17;;;;;;;99.80;36.50;;;;;;;1.71;100.00;102590.81;5078543;28;20213;-78
2022/01/13 04:59:45;;;;;;;97.57;35.03;;;;;;;1.77;99.96;102590.25;5077074;28;20697;-78
2022/01/13 05:02:11;;;;;;;95.57;36.63;;;;;;;1.72;100.00;102589.97;5078396;28;20224;-78
2022/01/13 05:04:38;;;;;;;99.63;35.07;;;;;;;1.68;100.00;102600.06;5078142;28;20204;-78
2022/01/13 05:07:05;;;;;;;92.80;35.03;;;;;;;1.69;100.00;102604.41;5078164;28;20225;-78
2022/01/13 05:09:32;;;;;;;96.07;35.93;;;;;;;1.73;100.00;102601.19;5077245;28;20269;-78
2022/01/13 05:11:59;;;;;;;91.53;34.37;;;;;;;1.71;100.00;102605.38;5077888;28;20291;-78
2022/01/13 05:14:26;;;;;;;92.27;33.33;;;;;;;1.73;100.00;102593.47;5065397;28;20198;-78
2022/01/13 05:16:58;;;;;;;92.73;31.80;;;;;;;1.75;100.00;102597.88;5073294;28;20204;-78
2022/01/13 05:19:29;;;;;;;94.53;34.37;;;;;;;1.72;100.00;102577.09;5076987;28;20204;-78
2022/01/13 05:22:15;;;;;;;92.10;32.30;;;;;;;1.78;100.00;102592.00;5077312;28;20208;-78
2022/01/13 05:24:44;;;;;;;87.67;32.10;;;;;;;1.70;100.00;102581.31;5077372;28;20262;-78
2022/01/13 05:27:11;;;;;;;93.53;34.33;;;;;;;1.64;100.00;102582.69;5076920;28;20735;-78
2022/01/13 05:29:37;;;;;;;86.27;31.60;;;;;;;1.65;100.00;102569.91;5076341;28;20201;-78
2022/01/13 05:32:04;;;;;;;100.27;33.33;;;;;;;1.60;100.00;102571.34;5076327;28;20764;-78
2022/01/13 05:34:30;;;;;;;111.43;35.33;;;;;;;1.58;100.00;102550.66;5076452;28;20205;-78
2022/01/13 05:36:57;;;;;;;102.37;34.43;;;;;;;1.59;100.00;102552.44;5076737;28;20270;-78
2022/01/13 05:39:23;;;;;;;101.73;35.10;;;;;;;1.58;100.00;102544.63;5075178;28;20258;-78
2022/01/13 05:41:51;;;;;;;108.43;36.73;;;;;;;1.59;100.00;102533.53;5076346;28;20678;-78
2022/01/13 05:44:18;;;;;;;95.40;31.77;;;;;;;1.59;100.00;102546.41;5072760;28;20209;-78
2022/01/13 05:46:44;;;;;;;105.70;35.80;;;;;;;1.71;100.00;102539.31;5070974;28;20287;-78
2022/01/13 05:49:11;;;;;;;100.87;35.27;;;;;;;1.69;100.00;102546.09;5076039;28;20216;-78
2022/01/13 05:51:37;;;;;;;107.17;35.60;;;;;;;1.66;100.00;102545.03;5075184;28;20262;-77
2022/01/13 05:54:04;;;;;;;114.97;38.00;;;;;;;1.70;100.00;102539.22;5076038;28;20262;-78
2022/01/13 05:56:30;;;;;;;107.63;33.87;;;;;;;1.82;100.00;102542.44;5075636;28;20611;-78
2022/01/13 05:58:58;;;;;;;101.93;34.47;;;;;;;1.74;100.00;102538.59;5075309;28;20200;-78
2022/01/13 06:01:24;;;;;;;100.87;34.47;;;;;;;1.77;100.00;102541.31;5075805;28;20209;-78
2022/01/13 06:03:51;;;;;;;105.83;34.60;;;;;;;1.91;100.00;102534.31;5075837;28;20224;-79
2022/01/13 06:06:17;;;;;;;96.13;32.77;;;;;;;2.02;100.00;102542.56;5075542;28;20675;-78
2022/01/13 06:08:43;;;;;;;86.37;31.33;;;;;;;2.09;100.00;102544.63;5075607;28;20208;-78
2022/01/13 06:11:10;;;;;;;84.37;30.23;;;;;;;2.24;100.00;102559.97;5075165;28;20205;-78
2022/01/13 06:13:36;;;;;;;79.07;30.37;;;;;;;2.37;100.00;102562.34;5079204;22;20742;-76
2022/01/13 06:16:04;;;;;;;73.93;30.73;;;;;;;2.46;100.00;102578.25;5048584;28;20983;-75
2022/01/13 06:18:31;;;;;;;74.10;30.00;;;;;;;2.50;100.00;102603.38;5052051;28;20241;-77
2022/01/13 06:20:57;;;;;;;69.67;28.10;;;;;;;2.55;100.00;102612.19;5051973;28;20206;-75
2022/01/13 06:23:23;;;;;;;70.40;28.17;;;;;;;2.65;100.00;102621.28;5052308;28;20267;-77
2022/01/13 06:25:50;;;;;;;85.37;30.77;;;;;;;2.46;99.54;102637.53;5052296;28;20235;-78
2022/01/13 06:28:16;;;;;;;82.23;31.03;;;;;;;2.36;99.76;102617.28;5052174;28;20263;-77
2022/01/13 06:30:42;;;;;;;80.60;30.93;;;;;;;2.41;100.00;102614.91;5051690;28;20217;-78
2022/01/13 06:33:10;;;;;;;86.53;31.93;;;;;;;2.49;99.60;102617.06;5052119;28;20229;-77
2022/01/13 06:35:37;;;;;;;82.37;30.77;;;;;;;2.53;99.67;102620.69;5052634;28;20205;-78
2022/01/13 06:38:03;;;;;;;88.20;32.43;;;;;;;2.27;100.00;102627.13;5061437;28;20201;-75
2022/01/13 06:40:30;;;;;;;83.17;31.60;;;;;;;2.31;100.00;102606.72;5059286;28;20197;-77
2022/01/13 06:42:56;;;;;;;86.80;31.40;;;;;;;2.42;100.00;102590.91;5059858;28;20230;-77
2022/01/13 06:45:23;;;;;;;79.10;29.93;;;;;;;2.48;100.00;102594.69;5057547;28;20205;-77
2022/01/13 06:47:49;;;;;;;84.97;30.40;;;;;;;2.45;99.94;102594.53;5052001;28;20221;-76
2022/01/13 06:50:17;;;;;;;83.40;30.20;;;;;;;2.48;100.00;102592.09;5051488;28;20468;-78
2022/01/13 06:52:44;;;;;;;89.80;32.63;;;;;;;2.48;99.87;102598.94;5052112;28;20205;-79
2022/01/13 06:55:10;;;;;;;91.10;31.17;;;;;;;2.38;100.00;102598.50;5051302;28;20209;-78
2022/01/13 06:57:37;;;;;;;89.33;32.57;;;;;;;2.28;100.00;102596.28;5051819;28;20675;-78
2022/01/13 07:00:05;;;;;;;89.23;31.50;;;;;;;2.18;100.00;102591.44;5051610;28;20683;-77
2022/01/13 07:02:32;;;;;;;88.47;31.07;;;;;;;2.31;100.00;102585.22;5051101;28;20600;-77
2022/01/13 07:04:59;;;;;;;74.17;29.57;;;;;;;2.33;100.00;102594.78;5051212;28;20296;-78
2022/01/13 07:07:33;;;;;;;84.00;31.13;;;;;;;2.37;100.00;102598.41;5051637;28;20271;-76
2022/01/13 07:09:59;;;;;;;81.53;30.03;;;;;;;2.30;100.00;102588.59;5054557;28;20206;-77
2022/01/13 07:12:26;;;;;;;92.20;32.50;;;;;;;2.33;100.00;102591.34;5051396;28;20292;-76
2022/01/13 07:14:52;;;;;;;84.10;31.60;;;;;;;2.28;100.00;102598.84;5051381;28;20732;-78
2022/01/13 07:17:18;;;;;;;83.33;29.03;;;;;;;2.43;100.00;102595.25;5051319;28;20201;-77
2022/01/13 07:19:46;;;;;;;80.03;29.37;;;;;;;2.48;100.00;102598.94;5051122;28;20213;-78
2022/01/13 07:22:12;;;;;;;80.60;30.73;;;;;;;2.42;100.00;102598.63;5051353;28;20205;-77
2022/01/13 07:24:40;;;;;;;79.93;29.50;;;;;;;2.46;100.00;102618.59;5051343;28;20259;-78
2022/01/13 07:27:06;;;;;;;83.00;28.50;;;;;;;2.34;100.00;102608.59;5050908;28;20201;-79
2022/01/13 07:29:32;;;;;;;78.27;29.43;;;;;;;2.35;100.00;102603.47;5050620;28;20629;-77
2022/01/13 07:31:59;;;;;;;79.30;29.27;;;;;;;2.34;100.00;102606.88;5050569;28;20271;-78
2022/01/13 07:34:25;;;;;;;82.03;29.70;;;;;;;2.24;100.00;102617.56;5050651;28;20221;-77
2022/01/13 07:36:52;;;;;;;80.40;28.13;;;;;;;2.37;100.00;102608.72;5050930;28;20668;-78
2022/01/13 07:39:18;;;;;;;83.43;28.87;;;;;;;2.41;100.00;102605.50;5050442;28;20201;-75
2022/01/13 07:41:46;;;;;;;89.33;30.83;;;;;;;2.47;100.00;102607.50;5058122;28;21314;-79
2022/01/13 07:44:12;;;;;;;76.67;29.03;;;;;;;2.49;100.00;102611.03;5062464;28;20217;-80
2022/01/13 07:46:39;;;;;;;81.53;30.37;;;;;;;2.30;100.00;102616.94;5066523;28;20189;-79
2022/01/13 07:49:05;;;;;;;91.43;32.23;;;;;;;2.34;100.00;102609.47;5059654;28;20774;-79
2022/01/13 07:51:31;;;;;;;79.37;28.43;;;;;;;2.33;100.00;102607.69;5049017;28;20656;-78
2022/01/13 07:53:58;;;;;;;84.73;29.97;;;;;;;2.38;100.00;102600.19;5051623;28;20784;-80
2022/01/13 07:56:24;;;;;;;73.43;29.10;;;;;;;2.50;100.00;102613.69;5051993;28;20622;-77
2022/01/13 07:58:52;;;;;;;79.90;28.40;;;;;;;2.32;100.00;102618.81;5050963;28;20189;-77
2022/01/13 08:01:18;;;;;;;77.93;29.00;;;;;;;2.44;100.00;102608.22;5050045;28;20197;-77
2022/01/13 08:03:45;;;;;;;79.37;29.03;;;;;;;2.63;100.00;102606.53;5049610;28;20283;-75
2022/01/13 08:06:11;;;;;;;86.60;36.10;;;;;;;2.45;100.00;102609.97;5049951;28;20435;-77
2022/01/13 08:08:38;;;;;;;80.07;30.10;;;;;;;2.44;100.00;102610.81;5049107;28;20746;-76
2022/01/13 08:11:05;;;;;;;74.67;28.80;;;;;;;2.54;100.00;102614.72;5050058;28;20197;-76
2022/01/13 08:13:32;;;;;;;73.97;28.70;;;;;;;2.67;100.00;102631.66;5050095;28;20278;-75
2022/01/13 08:16:01;;;;;;;70.43;25.87;;;;;;;2.52;100.00;102647.28;5050186;28;20225;-78
2022/01/13 08:21:12;;;;;;;70.07;25.80;;;;;;;2.70;100.00;102640.44;5050961;28;20255;-77
2022/01/13 08:23:39;;;;;;;73.40;27.63;;;;;;;2.70;100.00;102653.34;5053502;28;20267;-77
2022/01/13 08:26:05;;;;;;;69.57;26.47;;;;;;;2.49;100.00;102649.69;5053847;28;20252;-75
2022/01/13 08:28:31;;;;;;;79.20;27.23;;;;;;;2.53;100.00;102639.59;5053454;28;20267;-76
2022/01/13 08:30:59;;;;;;;78.80;29.53;;;;;;;2.48;100.00;102628.19;5053697;28;20232;-77
2022/01/13 08:33:26;;;;;;;79.97;31.40;;;;;;;2.57;100.00;102630.31;5054043;28;20222;-75
2022/01/13 08:35:54;;;;;;;67.87;26.10;;;;;;;2.48;100.00;102638.50;5053478;28;20614;-77
2022/01/13 08:38:21;;;;;;;70.57;27.33;;;;;;;2.48;100.00;102635.03;5051867;28;20205;-77
2022/01/13 08:40:50;;;;;;;70.63;26.33;;;;;;;2.53;100.00;102647.34;5053082;28;20694;-76
2022/01/13 08:43:17;;;;;;;67.83;26.97;;;;;;;2.66;100.00;102642.81;5051808;28;20283;-76
2022/01/13 08:45:44;;;;;;;68.97;26.17;;;;;;;2.63;100.00;102652.97;5053890;28;20201;-75
2022/01/13 08:48:12;;;;;;;59.87;24.83;;;;;;;2.58;100.00;102657.91;5053799;28;20439;-76
2022/01/13 08:50:38;;;;;;;76.73;27.87;;;;;;;2.44;100.00;102666.59;5053566;28;20197;-77
2022/01/13 08:53:06;;;;;;;67.97;26.33;;;;;;;2.46;100.00;102667.56;5053485;28;20218;-77
2022/01/13 08:55:32;;;;;;;64.87;25.93;;;;;;;2.56;100.00;102667.25;5053801;28;20194;-76
2022/01/13 08:57:59;;;;;;;65.30;24.77;;;;;;;2.52;100.00;102665.31;5053699;28;20205;-76
2022/01/13 09:00:25;;;;;;;62.40;24.57;;;;;;;2.48;100.00;102665.94;5053272;28;20247;-77
2022/01/13 09:02:52;;;;;;;68.40;26.53;;;;;;;2.56;100.00;102664.66;5053200;28;20189;-76
2022/01/13 09:05:21;;;;;;;61.33;25.20;;;;;;;2.48;100.00;102671.09;5052984;28;20251;-75
2022/01/13 09:07:48;;;;;;;63.13;24.70;;;;;;;2.67;100.00;102655.75;5053388;28;20772;-77
2022/01/13 09:10:15;;;;;;;54.23;22.73;;;;;;;2.76;100.00;102669.09;5050377;28;20205;-77
2022/01/13 09:12:42;;;;;;;50.87;22.93;;;;;;;2.94;100.00;102675.97;5052463;28;20205;-77
2022/01/13 09:15:30;;;;;;;56.33;23.27;;;;;;;2.78;99.78;102689.81;5052746;28;20240;-76
2022/01/13 09:17:58;;;;;;;56.07;23.30;;;;;;;2.73;99.56;102697.31;5050269;28;20672;-77
2022/01/13 09:20:26;;;;;;;57.00;22.93;;;;;;;2.89;99.94;102698.06;5052526;28;20576;-77
2022/01/13 09:22:53;;;;;;;59.50;23.57;;;;;;;2.73;99.77;102704.16;5053262;28;20227;-75
2022/01/13 09:25:19;;;;;;;52.77;22.53;;;;;;;2.81;99.81;102699.38;5052906;28;20596;-75
2022/01/13 09:27:46;;;;;;;53.47;21.07;;;;;;;2.89;99.56;102693.78;5052746;28;20654;-76
2022/01/13 09:30:14;;;;;;;52.70;22.27;;;;;;;2.86;99.67;102693.66;5051543;28;20198;-77
2022/01/13 09:32:41;;;;;;;54.20;23.63;;;;;;;2.81;99.67;102687.38;5052416;28;20741;-76
2022/01/13 09:35:09;;;;;;;52.40;25.13;;;;;;;2.90;99.78;102689.53;5052515;28;20205;-76
2022/01/13 09:37:37;;;;;;;50.50;22.73;;;;;;;2.82;99.30;102691.75;5054277;28;20201;-77
2022/01/13 09:40:07;;;;;;;53.00;21.67;;;;;;;2.96;99.62;102697.56;5053059;28;20253;-76
2022/01/13 09:42:35;;;;;;;50.03;21.87;;;;;;;2.92;99.30;102701.69;5052267;28;20796;-75
2022/01/13 09:45:03;;;;;;;51.97;22.03;;;;;;;2.95;98.97;102693.22;5052435;28;20206;-76
2022/01/13 09:47:30;;;;;;;49.97;21.97;;;;;;;3.05;98.87;102704.84;5052485;28;20379;-76
2022/01/13 09:50:00;;;;;;;51.17;21.37;;;;;;;2.93;98.70;102715.47;5049479;28;20229;-76
2022/01/13 09:52:26;;;;;;;55.30;23.10;;;;;;;2.88;99.11;102710.09;5052640;28;20202;-77
2022/01/13 09:54:55;;;;;;;48.40;21.47;;;;;;;2.81;99.05;102713.16;5052283;28;20218;-77
2022/01/13 09:57:22;;;;;;;59.57;21.80;;;;;;;2.75;99.42;102703.41;5052021;28;20201;-77
2022/01/13 09:59:49;;;;;;;54.77;21.43;;;;;;;2.83;99.43;102687.47;5051963;28;20198;-76
2022/01/13 10:02:15;;;;;;;59.30;21.90;;;;;;;2.97;99.00;102694.16;5051698;28;20223;-76
2022/01/13 10:04:46;;;;;;;49.20;20.00;;;;;;;2.85;98.85;102697.03;5052309;28;20287;-75
2022/01/13 10:07:17;;;;;;;50.57;20.63;;;;;;;2.77;99.35;102703.50;5052357;28;20201;-76
2022/01/13 10:09:54;;;;;;;50.17;21.90;;;;;;;2.74;99.72;102693.06;5051524;28;20235;-76
2022/01/13 10:12:26;;;;;;;51.87;20.03;;;;;;;2.68;99.32;102674.72;5051357;28;20251;-77
2022/01/13 10:17:45;;;;;;;47.03;21.83;;;;;;;2.64;99.64;102672.78;5024031;28;20197;-77
2022/01/13 10:20:13;;;;;;;57.67;21.67;;;;;;;2.62;100.00;102658.91;5051747;28;20201;-77
2022/01/13 10:22:39;;;;;;;48.50;20.67;;;;;;;2.67;100.00;102655.75;5051513;28;20205;-76
2022/01/13 10:25:08;;;;;;;54.83;21.83;;;;;;;2.69;100.00;102648.09;5051487;28;20201;-76
2022/01/13 10:27:36;;;;;;;46.67;20.07;;;;;;;2.78;100.00;102646.84;5051621;28;20220;-75
2022/01/13 10:30:07;;;;;;;51.40;22.00;;;;;;;2.90;99.85;102638.81;5051026;28;20270;-75
2022/01/13 10:32:37;;;;;;;46.57;19.57;;;;;;;3.00;100.00;102644.44;5051747;28;20197;-74
2022/01/13 10:35:06;;;;;;;46.43;20.87;;;;;;;3.13;99.66;102655.41;5051385;28;20284;-76
2022/01/13 10:37:35;;;;;;;54.00;24.17;;;;;;;3.22;99.41;102669.56;5052215;28;20690;-76
2022/01/13 10:40:05;;;;;;;47.50;21.27;;;;;;;3.26;99.05;102677.50;5049677;28;20202;-75
2022/01/13 10:45:28;;;;;;;47.58;20.17;;;;;;;3.29;98.18;102706.06;4379458;28;10001802;-77
2022/01/13 10:47:57;;;;;;;41.80;20.37;;;;;;;3.31;98.38;102696.69;5048833;28;20410;-76
2022/01/13 10:50:28;;;;;;;37.37;17.80;;;;;;;3.21;98.06;102703.91;5048591;28;20244;-76
2022/01/13 10:52:56;;;;;;;44.10;19.37;;;;;;;3.36;97.84;102694.31;5048588;28;20659;-77
2022/01/13 10:55:24;;;;;;;45.93;20.87;;;;;;;3.37;98.06;102696.97;5048583;28;20239;-77
2022/01/13 10:57:52;;;;;;;45.77;21.30;;;;;;;3.36;98.33;102691.72;5048949;28;20251;-76
2022/01/13 11:00:21;;;;;;;37.60;19.40;;;;;;;3.35;98.11;102695.09;5048463;28;20193;-76
2022/01/13 11:03:00;;;;;;;38.27;18.83;;;;;;;3.55;97.87;102690.91;5049992;28;20292;-76
2022/01/13 11:05:28;;;;;;;41.97;19.20;;;;;;;3.41;97.32;102699.69;5048314;28;20696;-76
2022/01/13 11:07:57;;;;;;;38.47;19.60;;;;;;;3.34;97.28;102714.88;5049155;28;20575;-76
2022/01/13 11:10:26;;;;;;;37.93;19.17;;;;;;;3.44;97.31;102699.84;5047923;28;20703;-76
2022/01/13 11:12:58;;;;;;;47.67;21.40;;;;;;;3.30;97.30;102694.03;5047353;28;20221;-76
2022/01/13 11:15:26;;;;;;;44.87;18.33;;;;;;;3.40;97.70;102677.28;5047604;28;20664;-75
2022/01/13 11:17:55;;;;;;;43.60;19.17;;;;;;;3.33;97.74;102681.25;5047941;28;20216;-76
2022/01/13 11:20:22;;;;;;;42.80;19.17;;;;;;;3.15;98.20;102677.00;5047713;28;20202;-76
2022/01/13 11:22:50;;;;;;;42.53;18.30;;;;;;;3.25;98.12;102673.16;5047821;28;20633;-76
2022/01/13 11:25:18;;;;;;;37.47;18.47;;;;;;;3.10;97.75;102680.19;5044936;28;20197;-77
2022/01/13 11:27:46;;;;;;;43.53;18.60;;;;;;;3.28;98.04;102667.25;5048182;28;20205;-76
2022/01/13 11:30:17;;;;;;;36.43;18.53;;;;;;;3.36;97.93;102666.78;5047348;28;20225;-76
2022/01/13 11:32:45;;;;;;;44.80;19.90;;;;;;;3.29;97.72;102669.00;5048510;28;20191;-75
2022/01/13 11:35:15;;;;;;;42.90;18.90;;;;;;;3.23;98.06;102669.63;5047453;28;20197;-74